Time;durP1;ratioP1;P1;durP2;ratioP2;P2;SDS_P1;SDS_P2;PMS_P1;PMS_P2;Temp;Humidity;BMP_temperature;BMP_pressure;BME280_temperature;BME280_humidity;BME280_pressure;Samples;Min_cycle;Max_cycle;Signal;HPM_P1;HPM_P2
2022/12/05 00:00:12;;;;;;;;;;;4.20;99.90;;;;;;5097241;28;19963;-58
2022/12/05 00:02:39;;;;;;;;;;;4.10;99.90;;;;;;5095075;28;19994;-58
2022/12/05 00:05:08;;;;;;;;;;;4.30;99.90;;;;;;5097243;28;19970;-59
2022/12/05 00:07:34;;;;;;;;;;;4.30;99.90;;;;;;5088928;28;19970;-58
2022/12/05 00:10:01;;;;;;;;;;;4.10;99.90;;;;;;5096334;28;20004;-58
2022/12/05 00:12:28;;;;;;;;;;;4.10;99.90;;;;;;5095904;28;19924;-59
2022/12/05 00:14:55;;;;;;;;;;;4.10;99.90;;;;;;5096390;28;19967;-56
2022/12/05 00:17:21;;;;;;;;;;;4.00;99.90;;;;;;5096476;28;19966;-58
2022/12/05 00:19:48;;;;;;;;;;;4.00;99.90;;;;;;5096553;28;20382;-58
2022/12/05 00:22:16;;;;;;;;;;;4.10;99.90;;;;;;5096666;28;20269;-58
2022/12/05 00:24:43;;;;;;;;;;;4.10;99.90;;;;;;5097351;28;20345;-58
2022/12/05 00:27:10;;;;;;;;;;;4.30;99.90;;;;;;5097655;28;19927;-58
2022/12/05 00:29:36;;;;;;;;;;;4.20;99.90;;;;;;5097665;28;20382;-58
2022/12/05 00:32:03;;;;;;;;;;;4.10;99.90;;;;;;5097705;28;20307;-58
2022/12/05 00:34:30;;;;;;;;;;;4.00;99.90;;;;;;5097412;28;19947;-58
2022/12/05 00:36:57;;;;;;;;;;;4.00;99.90;;;;;;5097512;28;19963;-56
2022/12/05 00:39:25;;;;;;;;;;;4.20;99.90;;;;;;5097535;28;19958;-58
2022/12/05 00:41:51;;;;;;;;;;;4.50;99.90;;;;;;5097363;28;19992;-59
2022/12/05 00:44:18;;;;;;;;;;;4.50;99.90;;;;;;5096339;28;19963;-59
2022/12/05 00:46:45;;;;;;;;;;;4.40;99.90;;;;;;5097434;28;19958;-59
2022/12/05 00:49:12;;;;;;;;;;;4.20;99.90;;;;;;5097435;28;19967;-59
2022/12/05 00:51:40;;;;;;;;;;;4.20;99.90;;;;;;5096895;28;19973;-57
2022/12/05 00:54:07;;;;;;;;;;;4.10;99.90;;;;;;5097000;28;19959;-58
2022/12/05 00:56:35;;;;;;;;;;;4.30;99.90;;;;;;5095719;28;19974;-58
2022/12/05 00:59:02;;;;;;;;;;;4.40;99.90;;;;;;5096215;28;19920;-58
2022/12/05 01:01:31;;;;;;;;;;;4.30;99.90;;;;;;5096808;28;19924;-58
2022/12/05 01:03:59;;;;;;;;;;;4.20;99.90;;;;;;5096886;28;20337;-58
2022/12/05 01:06:26;;;;;;;;;;;4.10;99.90;;;;;;5097151;28;19959;-58
2022/12/05 01:08:53;;;;;;;;;;;4.00;99.90;;;;;;5097524;28;20267;-58
2022/12/05 01:11:22;;;;;;;;;;;4.00;99.90;;;;;;5096354;28;19978;-59
2022/12/05 01:13:50;;;;;;;;;;;4.00;99.90;;;;;;5097038;28;20372;-58
2022/12/05 01:16:18;;;;;;;;;;;4.00;99.90;;;;;;5097211;28;20315;-58
2022/12/05 01:18:44;;;;;;;;;;;3.90;99.90;;;;;;5096990;28;20231;-58
2022/12/05 01:21:11;;;;;;;;;;;4.00;99.90;;;;;;5096619;28;19958;-58
2022/12/05 01:23:38;;;;;;;;;;;3.90;99.90;;;;;;5096802;28;19963;-59
2022/12/05 01:26:06;;;;;;;;;;;3.90;99.90;;;;;;5096798;28;19948;-57
2022/12/05 01:28:33;;;;;;;;;;;3.80;99.90;;;;;;5097130;28;19920;-59
2022/12/05 01:31:04;;;;;;;;;;;3.80;99.90;;;;;;5096649;28;20238;-57
2022/12/05 01:33:31;;;;;;;;;;;3.80;99.90;;;;;;5096954;28;19960;-60
2022/12/05 01:35:57;;;;;;;;;;;3.70;99.90;;;;;;5096974;28;19974;-57
2022/12/05 01:38:24;;;;;;;;;;;3.70;99.90;;;;;;5096651;28;19955;-58
2022/12/05 01:40:59;;;;;;;;;;;3.70;99.90;;;;;;5096895;28;19973;-58
2022/12/05 01:43:25;;;;;;;;;;;3.70;99.90;;;;;;5096349;28;20016;-58
2022/12/05 01:45:52;;;;;;;;;;;3.70;99.90;;;;;;5096244;28;20328;-58
2022/12/05 01:48:22;;;;;;;;;;;3.70;99.90;;;;;;5096166;28;20299;-58
2022/12/05 01:50:49;;;;;;;;;;;3.60;99.90;;;;;;5096728;28;19970;-57
2022/12/05 01:53:16;;;;;;;;;;;3.60;99.90;;;;;;5095714;28;19928;-58
2022/12/05 01:55:44;;;;;;;;;;;3.60;99.90;;;;;;5095984;28;20323;-58
2022/12/05 01:58:11;;;;;;;;;;;3.60;99.90;;;;;;5096264;28;20390;-58
2022/12/05 02:00:39;;;;;;;;;;;3.60;99.90;;;;;;5096280;28;19966;-58
2022/12/05 02:03:06;;;;;;;;;;;3.50;99.90;;;;;;5096010;28;20456;-58
2022/12/05 02:05:35;;;;;;;;;;;3.50;99.90;;;;;;5087848;28;20340;-58
2022/12/05 02:08:03;;;;;;;;;;;3.50;99.90;;;;;;5095988;28;20393;-58
2022/12/05 02:10:33;;;;;;;;;;;3.50;99.90;;;;;;5096158;28;20311;-58
2022/12/05 02:13:05;;;;;;;;;;;3.70;99.90;;;;;;5095517;28;19970;-58
2022/12/05 02:15:37;;;;;;;;;;;3.70;99.90;;;;;;5096441;28;20275;-59
2022/12/05 02:18:11;;;;;;;;;;;3.70;99.90;;;;;;5098750;28;19920;-58
2022/12/05 02:20:47;;;;;;;;;;;3.60;99.90;;;;;;5099237;28;20010;-58
2022/12/05 02:23:21;;;;;;;;;;;3.60;99.90;;;;;;5099789;28;19970;-58
2022/12/05 02:26:00;;;;;;;;;;;3.50;99.90;;;;;;5099204;28;19973;-58
2022/12/05 02:28:43;;;;;;;;;;;3.50;99.90;;;;;;5099151;28;20010;-58
2022/12/05 02:31:15;;;;;;;;;;;3.50;99.90;;;;;;5099911;28;19924;-58
2022/12/05 02:33:44;;;;;;;;;;;3.40;99.90;;;;;;5099571;28;20005;-59
2022/12/05 02:36:12;;;;;;;;;;;3.60;99.90;;;;;;5100230;28;19959;-58
2022/12/05 02:38:41;;;;;;;;;;;3.70;99.90;;;;;;5099904;28;19974;-58
2022/12/05 02:41:12;;;;;;;;;;;3.70;99.90;;;;;;5100136;28;20011;-57
2022/12/05 02:43:41;;;;;;;;;;;3.80;99.90;;;;;;5099908;28;20005;-58
2022/12/05 02:46:09;;;;;;;;;;;3.80;99.90;;;;;;5100227;28;19973;-58
2022/12/05 02:48:38;;;;;;;;;;;4.10;99.90;;;;;;5099754;28;20020;-58
2022/12/05 02:51:07;;;;;;;;;;;4.10;99.90;;;;;;5099481;28;19920;-58
2022/12/05 02:53:34;;;;;;;;;;;4.20;99.90;;;;;;5099719;28;20022;-58
2022/12/05 02:56:02;;;;;;;;;;;4.50;99.90;;;;;;5099793;28;19965;-58
2022/12/05 02:58:31;;;;;;;;;;;4.50;99.90;;;;;;5099950;28;20287;-58
2022/12/05 03:00:58;;;;;;;;;;;4.40;99.90;;;;;;5099316;28;20340;-58
2022/12/05 03:03:26;;;;;;;;;;;4.20;99.90;;;;;;5099497;28;19924;-58
2022/12/05 03:05:57;;;;;;;;;;;4.20;99.90;;;;;;5099288;28;19967;-58
2022/12/05 03:08:25;;;;;;;;;;;4.20;99.90;;;;;;5099231;28;19974;-58
2022/12/05 03:10:53;;;;;;;;;;;4.10;99.90;;;;;;5099632;28;19920;-58
2022/12/05 03:13:21;;;;;;;;;;;4.00;99.90;;;;;;5099181;28;19924;-58
2022/12/05 03:15:48;;;;;;;;;;;3.90;99.90;;;;;;5098769;28;19970;-58
2022/12/05 03:18:17;;;;;;;;;;;3.80;99.90;;;;;;5099391;28;19963;-57
2022/12/05 03:20:46;;;;;;;;;;;3.70;99.90;;;;;;5099247;28;19954;-58
2022/12/05 03:23:18;;;;;;;;;;;3.80;99.90;;;;;;5098950;28;19919;-58
2022/12/05 03:25:50;;;;;;;;;;;3.90;99.90;;;;;;5099119;28;20346;-57
2022/12/05 03:28:18;;;;;;;;;;;3.90;99.90;;;;;;5098460;28;20377;-58
2022/12/05 03:30:47;;;;;;;;;;;3.80;99.90;;;;;;5098903;28;20371;-63
2022/12/05 03:33:17;;;;;;;;;;;3.80;99.90;;;;;;5098712;28;20316;-58
2022/12/05 03:35:47;;;;;;;;;;;3.70;99.90;;;;;;5098683;28;20229;-58
2022/12/05 03:38:17;;;;;;;;;;;3.70;99.90;;;;;;5098649;28;19962;-58
2022/12/05 03:40:45;;;;;;;;;;;3.70;99.90;;;;;;5098648;28;19971;-58
2022/12/05 03:43:14;;;;;;;;;;;3.80;99.90;;;;;;5098576;28;20015;-58
2022/12/05 03:45:44;;;;;;;;;;;3.80;99.90;;;;;;5099052;28;20299;-58
2022/12/05 03:48:14;;;;;;;;;;;3.90;99.90;;;;;;5098235;28;20343;-58
2022/12/05 03:50:44;;;;;;;;;;;4.00;99.90;;;;;;5098693;28;20001;-57
2022/12/05 03:53:13;;;;;;;;;;;4.00;99.90;;;;;;5097993;28;19968;-58
2022/12/05 03:55:43;;;;;;;;;;;4.10;99.90;;;;;;5098170;28;19970;-58
2022/12/05 03:58:11;;;;;;;;;;;4.10;99.90;;;;;;5098264;28;19974;-58
2022/12/05 04:00:40;;;;;;;;;;;4.10;99.90;;;;;;5098076;28;19947;-58
2022/12/05 04:03:09;;;;;;;;;;;4.10;99.90;;;;;;5098500;28;19924;-58
2022/12/05 04:05:39;;;;;;;;;;;4.00;99.90;;;;;;5098723;28;20019;-58
2022/12/05 04:08:07;;;;;;;;;;;4.00;99.90;;;;;;5098364;28;19920;-55
2022/12/05 04:10:47;;;;;;;;;;;4.00;99.90;;;;;;5098205;28;19955;-58
2022/12/05 04:13:17;;;;;;;;;;;4.00;99.90;;;;;;5077121;28;19924;-58
2022/12/05 04:18:30;;;;;;;;;;;4.00;99.90;;;;;;5036331;28;19916;-58
2022/12/05 04:23:42;;;;;;;;;;;4.00;99.90;;;;;;5075176;28;19923;-58
2022/12/05 04:26:11;;;;;;;;;;;4.00;99.90;;;;;;5076058;28;20009;-57
2022/12/05 04:28:41;;;;;;;;;;;4.00;99.90;;;;;;5076269;28;19969;-58
2022/12/05 04:31:10;;;;;;;;;;;3.90;99.90;;;;;;5075431;28;19928;-58
2022/12/05 04:33:41;;;;;;;;;;;3.90;99.90;;;;;;5075548;28;20002;-58
2022/12/05 04:36:12;;;;;;;;;;;4.30;99.90;;;;;;5076106;28;20351;-58
2022/12/05 04:38:42;;;;;;;;;;;4.50;99.90;;;;;;5076202;28;19955;-59
2022/12/05 04:41:11;;;;;;;;;;;4.60;99.90;;;;;;5076288;28;20013;-58
2022/12/05 04:43:40;;;;;;;;;;;4.60;99.90;;;;;;5076141;28;20308;-59
2022/12/05 04:46:09;;;;;;;;;;;4.60;99.90;;;;;;5077575;28;19948;-61
2022/12/05 04:48:37;;;;;;;;;;;4.50;99.90;;;;;;5077503;28;19956;-58
2022/12/05 04:51:04;;;;;;;;;;;4.50;99.90;;;;;;5076758;28;20323;-58
2022/12/05 04:53:32;;;;;;;;;;;4.60;99.90;;;;;;5076950;28;19990;-58
2022/12/05 04:56:00;;;;;;;;;;;4.60;99.90;;;;;;5076822;28;19980;-58
2022/12/05 04:58:29;;;;;;;;;;;4.60;99.90;;;;;;5077138;28;19948;-58
2022/12/05 05:01:02;;;;;;;;;;;4.70;99.90;;;;;;5076763;28;19925;-58
2022/12/05 05:03:30;;;;;;;;;;;4.60;99.90;;;;;;5076080;28;19920;-58
2022/12/05 05:05:58;;;;;;;;;;;4.50;99.90;;;;;;5076261;28;19955;-59
2022/12/05 05:08:26;;;;;;;;;;;4.50;99.90;;;;;;5075225;28;19920;-59
2022/12/05 05:11:09;;;;;;;;;;;4.30;99.90;;;;;;5075634;28;19920;-58
2022/12/05 05:13:35;;;;;;;;;;;4.30;99.90;;;;;;5074899;28;20010;-58
2022/12/05 05:16:04;;;;;;;;;;;4.30;99.90;;;;;;5075356;28;20283;-58
2022/12/05 05:18:30;;;;;;;;;;;4.40;99.90;;;;;;5074485;28;19974;-59
2022/12/05 05:20:57;;;;;;;;;;;4.40;99.90;;;;;;5075736;28;20389;-58
2022/12/05 05:23:24;;;;;;;;;;;4.40;99.90;;;;;;5075728;28;20359;-58
2022/12/05 05:25:54;;;;;;;;;;;4.50;99.90;;;;;;5074090;28;20297;-60
2022/12/05 05:28:20;;;;;;;;;;;4.60;99.90;;;;;;5075894;28;19920;-61
2022/12/05 05:30:47;;;;;;;;;;;4.50;99.90;;;;;;5076195;28;20290;-61
2022/12/05 05:33:15;;;;;;;;;;;4.40;99.90;;;;;;5075119;28;19974;-61
2022/12/05 05:35:42;;;;;;;;;;;4.40;99.90;;;;;;5076239;28;19960;-61
2022/12/05 05:38:09;;;;;;;;;;;4.30;99.90;;;;;;5076157;28;19971;-61
2022/12/05 05:40:36;;;;;;;;;;;4.20;99.90;;;;;;5076664;28;19978;-61
2022/12/05 05:43:03;;;;;;;;;;;4.30;99.90;;;;;;5076089;28;20255;-61
2022/12/05 05:45:30;;;;;;;;;;;4.30;99.90;;;;;;5076337;28;19975;-61
2022/12/05 05:47:56;;;;;;;;;;;4.40;99.90;;;;;;5075537;28;19967;-61
2022/12/05 05:50:24;;;;;;;;;;;4.30;99.90;;;;;;5075193;28;20406;-61
2022/12/05 05:52:51;;;;;;;;;;;4.40;99.90;;;;;;5078928;28;19985;-61
2022/12/05 05:55:18;;;;;;;;;;;4.30;99.90;;;;;;5078614;28;19942;-61
2022/12/05 05:57:45;;;;;;;;;;;4.30;99.90;;;;;;5078672;28;19952;-61
2022/12/05 06:00:12;;;;;;;;;;;4.40;99.90;;;;;;5079490;28;19920;-61
2022/12/05 06:02:39;;;;;;;;;;;4.40;99.90;;;;;;5079514;28;19960;-61
2022/12/05 06:05:06;;;;;;;;;;;4.40;99.90;;;;;;5080144;28;20307;-61
2022/12/05 06:07:34;;;;;;;;;;;4.40;99.90;;;;;;5079748;28;20012;-61
2022/12/05 06:10:00;;;;;;;;;;;4.40;99.90;;;;;;5079857;28;19960;-62
2022/12/05 06:12:27;;;;;;;;;;;4.30;99.90;;;;;;5093212;28;19928;-61
2022/12/05 06:14:54;;;;;;;;;;;4.60;99.90;;;;;;5097387;28;20012;-61
2022/12/05 06:17:21;;;;;;;;;;;4.70;99.90;;;;;;5097547;28;20310;-61
2022/12/05 06:19:47;;;;;;;;;;;4.90;99.90;;;;;;5097745;28;19920;-61
2022/12/05 06:22:14;;;;;;;;;;;4.90;99.90;;;;;;5098442;28;19959;-61
2022/12/05 06:24:42;;;;;;;;;;;4.80;99.90;;;;;;5097992;28;19920;-61
2022/12/05 06:27:09;;;;;;;;;;;4.70;99.90;;;;;;5099271;28;19955;-61
2022/12/05 06:29:36;;;;;;;;;;;4.70;99.90;;;;;;5098638;28;19960;-61
2022/12/05 06:32:03;;;;;;;;;;;4.70;99.90;;;;;;5097188;28;19922;-61
2022/12/05 06:34:31;;;;;;;;;;;4.60;99.90;;;;;;5097891;28;19929;-61
2022/12/05 06:36:58;;;;;;;;;;;4.60;99.90;;;;;;5096092;28;19928;-60
2022/12/05 06:39:25;;;;;;;;;;;4.70;99.90;;;;;;5096505;28;19996;-61
2022/12/05 06:41:53;;;;;;;;;;;4.60;99.90;;;;;;5097279;28;19959;-60
2022/12/05 06:44:20;;;;;;;;;;;4.60;99.90;;;;;;5095531;28;20018;-61
2022/12/05 06:46:47;;;;;;;;;;;4.40;99.90;;;;;;5093155;28;19959;-61
2022/12/05 06:49:14;;;;;;;;;;;4.20;99.90;;;;;;5077803;28;20312;-60
2022/12/05 06:51:40;;;;;;;;;;;4.20;99.90;;;;;;5078352;28;19960;-61
2022/12/05 06:54:07;;;;;;;;;;;4.20;99.90;;;;;;5077815;28;19967;-59
2022/12/05 06:56:34;;;;;;;;;;;4.10;99.90;;;;;;5077755;28;19959;-60
2022/12/05 06:59:02;;;;;;;;;;;4.20;99.90;;;;;;5078781;28;20291;-61
2022/12/05 07:01:40;;;;;;;;;;;4.20;99.90;;;;;;5077013;28;19967;-60
2022/12/05 07:04:10;;;;;;;;;;;4.10;99.90;;;;;;5075731;28;19939;-58
2022/12/05 07:06:36;;;;;;;;;;;4.10;99.90;;;;;;5078150;28;19985;-61
2022/12/05 07:09:03;;;;;;;;;;;4.20;99.90;;;;;;5077636;28;20335;-61
2022/12/05 07:11:30;;;;;;;;;;;4.20;99.90;;;;;;5076292;28;19947;-61
2022/12/05 07:13:57;;;;;;;;;;;4.20;99.90;;;;;;5081058;28;19955;-58
2022/12/05 07:16:25;;;;;;;;;;;4.20;99.90;;;;;;5095613;28;19963;-59
2022/12/05 07:18:52;;;;;;;;;;;4.30;99.90;;;;;;5094450;28;19959;-58
2022/12/05 07:21:20;;;;;;;;;;;4.30;99.90;;;;;;5095800;28;20312;-58
2022/12/05 07:23:48;;;;;;;;;;;4.20;99.90;;;;;;5094934;28;20002;-58
2022/12/05 07:26:16;;;;;;;;;;;4.30;99.90;;;;;;5096798;28;20156;-58
2022/12/05 07:28:45;;;;;;;;;;;4.30;99.90;;;;;;5088293;28;20303;-58
2022/12/05 07:31:13;;;;;;;;;;;4.20;99.90;;;;;;5093708;28;20300;-59
2022/12/05 07:33:42;;;;;;;;;;;4.20;99.90;;;;;;5087946;28;19927;-58
2022/12/05 07:36:10;;;;;;;;;;;4.20;99.90;;;;;;5079286;28;19924;-59
2022/12/05 07:38:37;;;;;;;;;;;4.20;99.90;;;;;;5073254;28;20069;-58
2022/12/05 07:41:04;;;;;;;;;;;4.20;99.90;;;;;;5090202;28;20005;-59
2022/12/05 07:43:31;;;;;;;;;;;4.30;99.90;;;;;;5088198;28;19951;-59
2022/12/05 07:46:00;;;;;;;;;;;4.30;99.90;;;;;;5092955;28;19920;-58
2022/12/05 07:48:27;;;;;;;;;;;4.30;99.90;;;;;;5093132;28;19952;-58
2022/12/05 07:50:58;;;;;;;;;;;4.50;99.90;;;;;;5090269;28;20287;-59
2022/12/05 07:53:25;;;;;;;;;;;4.60;99.90;;;;;;5095301;28;20018;-57
2022/12/05 07:55:52;;;;;;;;;;;4.70;99.90;;;;;;5096936;28;19963;-58
2022/12/05 07:58:18;;;;;;;;;;;4.70;99.90;;;;;;5092976;28;19931;-58
2022/12/05 08:00:45;;;;;;;;;;;4.70;99.90;;;;;;5093710;28;19955;-59
2022/12/05 08:03:12;;;;;;;;;;;4.70;99.90;;;;;;5094550;28;19973;-57
2022/12/05 08:05:38;;;;;;;;;;;4.80;99.90;;;;;;5094930;28;20381;-58
2022/12/05 08:08:07;;;;;;;;;;;4.80;99.90;;;;;;5095450;28;19955;-58
2022/12/05 08:10:34;;;;;;;;;;;4.80;99.90;;;;;;5096229;28;20023;-59
2022/12/05 08:13:00;;;;;;;;;;;4.80;99.90;;;;;;5094359;28;20049;-59
2022/12/05 08:15:27;;;;;;;;;;;4.90;99.90;;;;;;5094560;28;20020;-60
2022/12/05 08:17:54;;;;;;;;;;;5.20;99.90;;;;;;5095272;28;19923;-59
2022/12/05 08:20:20;;;;;;;;;;;5.30;99.90;;;;;;5093936;28;19919;-59
2022/12/05 08:22:47;;;;;;;;;;;5.20;99.90;;;;;;5096572;28;20369;-59
2022/12/05 08:25:15;;;;;;;;;;;5.10;99.90;;;;;;5093062;28;19951;-58
2022/12/05 08:27:42;;;;;;;;;;;5.00;99.90;;;;;;5073983;28;19964;-59
2022/12/05 08:30:09;;;;;;;;;;;5.00;99.90;;;;;;5075050;28;19924;-59
2022/12/05 08:32:36;;;;;;;;;;;5.00;99.90;;;;;;5084027;28;19958;-58
2022/12/05 08:35:02;;;;;;;;;;;5.00;99.90;;;;;;5092891;28;20216;-58
2022/12/05 08:37:29;;;;;;;;;;;5.00;99.90;;;;;;5096134;28;19956;-59
2022/12/05 08:39:56;;;;;;;;;;;5.20;99.90;;;;;;5095438;28;19962;-59
2022/12/05 08:42:24;;;;;;;;;;;5.20;99.90;;;;;;5095311;28;19955;-59
2022/12/05 08:44:50;;;;;;;;;;;5.10;99.90;;;;;;5094689;28;19959;-58
2022/12/05 08:47:17;;;;;;;;;;;5.10;99.90;;;;;;5095536;28;20345;-59
2022/12/05 08:49:44;;;;;;;;;;;5.10;99.90;;;;;;5091781;28;19926;-58
2022/12/05 08:52:11;;;;;;;;;;;5.10;99.90;;;;;;5092310;28;19961;-59
2022/12/05 08:54:37;;;;;;;;;;;5.00;99.90;;;;;;5078000;28;19925;-59
2022/12/05 08:57:04;;;;;;;;;;;5.00;99.90;;;;;;5080448;28;19951;-58
2022/12/05 08:59:32;;;;;;;;;;;5.00;99.90;;;;;;5093407;28;19955;-59
2022/12/05 09:01:59;;;;;;;;;;;5.00;99.90;;;;;;5094004;28;19970;-58
2022/12/05 09:04:26;;;;;;;;;;;5.00;99.90;;;;;;5092236;28;19959;-57
2022/12/05 09:06:52;;;;;;;;;;;5.10;99.90;;;;;;5094215;28;19948;-58
2022/12/05 09:09:19;;;;;;;;;;;5.20;99.90;;;;;;5087654;28;19940;-57
2022/12/05 09:11:48;;;;;;;;;;;5.30;99.90;;;;;;5094408;28;19981;-57
2022/12/05 09:14:15;;;;;;;;;;;5.40;99.90;;;;;;5088100;28;19920;-58
2022/12/05 09:16:43;;;;;;;;;;;5.40;99.90;;;;;;5081278;28;19998;-57
2022/12/05 09:19:12;;;;;;;;;;;5.40;99.90;;;;;;5094097;28;20396;-58
2022/12/05 09:21:38;;;;;;;;;;;5.40;99.90;;;;;;5090292;28;20040;-58
2022/12/05 09:24:05;;;;;;;;;;;5.40;99.90;;;;;;5079856;28;20003;-59
2022/12/05 09:26:32;;;;;;;;;;;5.50;99.90;;;;;;5092130;28;20294;-59
2022/12/05 09:28:58;;;;;;;;;;;5.50;99.90;;;;;;5081505;28;19920;-58
2022/12/05 09:31:26;;;;;;;;;;;5.50;99.90;;;;;;5073374;28;19959;-58
2022/12/05 09:33:55;;;;;;;;;;;5.50;99.90;;;;;;5073418;28;20235;-58
2022/12/05 09:36:22;;;;;;;;;;;5.60;99.90;;;;;;5072943;28;20287;-58
2022/12/05 09:38:49;;;;;;;;;;;5.70;99.90;;;;;;5072670;28;19924;-58
2022/12/05 09:42:03;;;;;;;;;;;5.70;99.90;;;;;;5073722;28;20319;-58
2022/12/05 09:44:13;;;;;;;;;;;5.80;99.90;;;;;;5074490;28;20002;-58
2022/12/05 09:46:43;;;;;;;;;;;5.80;99.90;;;;;;5073788;28;20397;-58
2022/12/05 09:49:12;;;;;;;;;;;5.80;99.90;;;;;;5072773;28;20323;-59
2022/12/05 09:51:41;;;;;;;;;;;5.90;99.90;;;;;;5073259;28;19971;-57
2022/12/05 09:54:10;;;;;;;;;;;5.90;99.90;;;;;;5073424;28;20039;-58
2022/12/05 09:56:38;;;;;;;;;;;6.00;99.90;;;;;;5074645;28;19928;-57
2022/12/05 09:59:05;;;;;;;;;;;6.00;99.90;;;;;;5074300;28;19928;-58
2022/12/05 10:01:37;;;;;;;;;;;6.00;99.90;;;;;;5066004;28;20308;-59
2022/12/05 10:04:07;;;;;;;;;;;6.00;99.90;;;;;;5072983;28;20339;-59
2022/12/05 10:06:40;;;;;;;;;;;6.10;99.90;;;;;;5074178;28;19924;-59
2022/12/05 10:09:23;;;;;;;;;;;6.10;99.90;;;;;;5071438;28;19963;-58
2022/12/05 10:11:53;;;;;;;;;;;6.20;99.90;;;;;;5071877;28;19920;-59
2022/12/05 10:14:26;;;;;;;;;;;6.50;99.90;;;;;;5070489;28;20254;-59
2022/12/05 10:16:55;;;;;;;;;;;6.50;99.90;;;;;;5082821;28;20007;-60
2022/12/05 10:19:23;;;;;;;;;;;6.70;99.90;;;;;;5089912;28;19959;-60
2022/12/05 10:21:55;;;;;;;;;;;6.60;99.90;;;;;;5085254;28;19923;-58
2022/12/05 10:24:26;;;;;;;;;;;6.60;99.90;;;;;;5091619;28;20065;-59
2022/12/05 10:26:55;;;;;;;;;;;6.60;99.90;;;;;;5074135;28;19921;-59
2022/12/05 10:29:25;;;;;;;;;;;6.80;99.90;;;;;;5072903;28;19924;-59
2022/12/05 10:31:54;;;;;;;;;;;6.70;99.90;;;;;;5073476;28;19920;-59
2022/12/05 10:34:26;;;;;;;;;;;6.70;99.90;;;;;;5071963;28;20019;-59
2022/12/05 10:36:57;;;;;;;;;;;6.80;99.90;;;;;;5072260;28;19948;-62
2022/12/05 10:39:24;;;;;;;;;;;6.90;99.90;;;;;;5078701;28;20617;-63
2022/12/05 10:41:50;;;;;;;;;;;7.00;99.90;;;;;;5088379;28;19931;-63
2022/12/05 10:44:17;;;;;;;;;;;7.10;99.90;;;;;;5089583;28;19923;-62
2022/12/05 10:46:44;;;;;;;;;;;7.40;99.90;;;;;;5082475;28;20019;-63
2022/12/05 10:49:11;;;;;;;;;;;7.40;99.90;;;;;;5092256;28;20392;-62
2022/12/05 10:51:38;;;;;;;;;;;7.50;99.90;;;;;;5092331;28;19978;-62
2022/12/05 10:54:13;;;;;;;;;;;7.60;99.90;;;;;;5091389;28;20312;-62
2022/12/05 10:56:41;;;;;;;;;;;7.90;99.90;;;;;;5084326;28;20383;-62
2022/12/05 10:59:09;;;;;;;;;;;8.00;99.90;;;;;;5085350;28;19994;-63
2022/12/05 11:01:37;;;;;;;;;;;8.20;99.90;;;;;;5083811;28;19973;-62
2022/12/05 11:04:06;;;;;;;;;;;8.20;99.90;;;;;;5086759;28;19975;-61
2022/12/05 11:06:33;;;;;;;;;;;8.30;99.90;;;;;;5088169;28;19920;-61
2022/12/05 11:09:03;;;;;;;;;;;8.30;99.90;;;;;;5083210;28;19929;-63
2022/12/05 11:11:32;;;;;;;;;;;8.10;99.90;;;;;;5091602;28;19924;-57
2022/12/05 11:14:04;;;;;;;;;;;8.00;99.90;;;;;;5079891;28;20007;-61
2022/12/05 11:16:32;;;;;;;;;;;8.00;99.90;;;;;;5095073;28;20227;-60
2022/12/05 11:19:17;;;;;;;;;;;8.00;99.90;;;;;;5083678;28;20015;-58
2022/12/05 11:21:44;;;;;;;;;;;8.10;99.90;;;;;;5076924;28;20086;-59
2022/12/05 11:24:20;;;;;;;;;;;8.10;99.90;;;;;;5093008;28;19951;-60
2022/12/05 11:26:49;;;;;;;;;;;8.10;99.90;;;;;;5083761;28;19955;-59
2022/12/05 11:29:29;;;;;;;;;;;7.90;99.90;;;;;;5083102;28;19920;-60
2022/12/05 11:31:55;;;;;;;;;;;7.90;99.90;;;;;;5074901;28;20015;-59
2022/12/05 11:34:24;;;;;;;;;;;8.00;99.90;;;;;;5075172;28;20071;-60
2022/12/05 11:36:54;;;;;;;;;;;7.90;99.90;;;;;;5075249;28;19964;-59
2022/12/05 11:39:21;;;;;;;;;;;8.00;99.90;;;;;;5076149;28;19921;-59
2022/12/05 11:41:58;;;;;;;;;;;8.10;99.90;;;;;;5079300;28;20007;-60
2022/12/05 11:44:41;;;;;;;;;;;8.20;99.90;;;;;;5084924;28;19920;-59
2022/12/05 11:47:14;;;;;;;;;;;8.30;99.90;;;;;;5077551;28;19920;-59
2022/12/05 11:49:49;;;;;;;;;;;8.20;99.90;;;;;;5076686;28;19924;-59
2022/12/05 11:52:23;;;;;;;;;;;8.30;99.90;;;;;;5073587;28;20306;-60
2022/12/05 11:54:55;;;;;;;;;;;8.20;99.90;;;;;;5075018;28;20031;-59
2022/12/05 11:57:28;;;;;;;;;;;8.20;99.90;;;;;;5073713;28;19920;-59
2022/12/05 12:00:09;;;;;;;;;;;8.30;99.90;;;;;;5073060;28;20304;-59
2022/12/05 12:02:43;;;;;;;;;;;8.40;99.90;;;;;;5071128;28;19959;-59
2022/12/05 12:05:16;;;;;;;;;;;8.30;99.90;;;;;;5088490;28;20192;-59
2022/12/05 12:07:51;;;;;;;;;;;8.30;99.90;;;;;;5087332;28;19920;-59
2022/12/05 12:10:22;;;;;;;;;;;8.30;99.90;;;;;;5081620;28;20014;-59
2022/12/05 12:12:55;;;;;;;;;;;8.40;99.90;;;;;;5085248;28;19947;-60
2022/12/05 12:15:36;;;;;;;;;;;8.30;99.90;;;;;;5075071;28;19974;-59
2022/12/05 12:18:08;;;;;;;;;;;8.30;99.90;;;;;;5070304;28;20340;-59
2022/12/05 12:20:43;;;;;;;;;;;8.30;99.90;;;;;;5076563;28;19920;-59
2022/12/05 12:23:28;;;;;;;;;;;8.40;99.90;;;;;;5095745;28;19963;-60
2022/12/05 12:26:01;;;;;;;;;;;8.40;99.90;;;;;;5093891;28;19962;-60
2022/12/05 12:28:34;;;;;;;;;;;8.40;99.90;;;;;;5095023;28;19920;-60
2022/12/05 12:31:17;;;;;;;;;;;8.40;99.90;;;;;;5092477;28;20319;-60
2022/12/05 12:33:46;;;;;;;;;;;8.40;99.90;;;;;;5094304;28;19920;-60
2022/12/05 12:36:16;;;;;;;;;;;8.50;99.90;;;;;;5094320;28;20276;-60
2022/12/05 12:39:01;;;;;;;;;;;8.50;99.90;;;;;;5092991;28;19920;-60
2022/12/05 12:41:42;;;;;;;;;;;8.60;99.90;;;;;;5078140;28;20006;-61
2022/12/05 12:44:21;;;;;;;;;;;8.60;99.90;;;;;;5087222;28;19966;-60
2022/12/05 12:46:52;;;;;;;;;;;8.60;99.90;;;;;;5091221;28;19963;-61
2022/12/05 12:49:31;;;;;;;;;;;8.50;99.90;;;;;;5081957;28;19942;-61
2022/12/05 12:52:01;;;;;;;;;;;8.60;99.90;;;;;;5075045;28;20014;-62
2022/12/05 12:54:33;;;;;;;;;;;8.50;99.90;;;;;;5073953;28;20398;-62
2022/12/05 12:57:03;;;;;;;;;;;8.50;99.90;;;;;;5073884;28;20410;-62
2022/12/05 12:59:40;;;;;;;;;;;8.50;99.90;;;;;;5074124;28;19924;-60
2022/12/05 13:02:13;;;;;;;;;;;8.60;99.90;;;;;;5088514;28;20288;-60
2022/12/05 13:04:44;;;;;;;;;;;8.50;99.90;;;;;;5079828;28;20015;-62
2022/12/05 13:07:13;;;;;;;;;;;8.40;99.90;;;;;;5089930;28;19955;-63
2022/12/05 13:09:43;;;;;;;;;;;8.50;99.90;;;;;;5091121;28;19927;-63
2022/12/05 13:12:11;;;;;;;;;;;8.40;99.90;;;;;;5093844;28;20090;-62
2022/12/05 13:14:40;;;;;;;;;;;8.50;99.90;;;;;;5093729;28;20014;-62
2022/12/05 13:17:08;;;;;;;;;;;8.40;99.90;;;;;;5094145;28;19959;-63
2022/12/05 13:19:41;;;;;;;;;;;8.30;99.90;;;;;;5093645;28;19927;-63
2022/12/05 13:22:08;;;;;;;;;;;8.40;99.90;;;;;;5093718;28;19924;-63
2022/12/05 13:24:35;;;;;;;;;;;8.30;99.90;;;;;;5093247;28;19967;-63
2022/12/05 13:27:05;;;;;;;;;;;8.30;99.90;;;;;;5092746;28;19962;-63
2022/12/05 13:29:33;;;;;;;;;;;8.30;99.90;;;;;;5092529;28;19920;-63
2022/12/05 13:32:03;;;;;;;;;;;8.20;99.90;;;;;;5088787;28;19924;-63
2022/12/05 13:34:44;;;;;;;;;;;8.40;99.90;;;;;;5089487;28;19939;-62
2022/12/05 13:42:44;;;;;;;;;;;8.30;99.90;;;;;;5086119;28;19944;-62
2022/12/05 13:45:15;;;;;;;;;;;8.20;99.90;;;;;;5073277;28;19927;-62
2022/12/05 13:47:50;;;;;;;;;;;8.10;99.90;;;;;;5074186;28;20387;-63
2022/12/05 13:50:18;;;;;;;;;;;8.00;99.90;;;;;;5073445;28;20334;-63
2022/12/05 13:52:47;;;;;;;;;;;8.00;99.90;;;;;;5071667;28;19959;-62
2022/12/05 13:55:18;;;;;;;;;;;8.00;99.90;;;;;;5072996;28;19924;-62
2022/12/05 13:57:47;;;;;;;;;;;8.00;99.90;;;;;;5073909;28;19955;-61
2022/12/05 14:00:27;;;;;;;;;;;8.10;99.90;;;;;;5072718;28;19920;-62
2022/12/05 14:03:02;;;;;;;;;;;8.00;99.90;;;;;;5073113;28;19924;-63
2022/12/05 14:05:39;;;;;;;;;;;8.10;99.90;;;;;;5072709;28;19985;-62
2022/12/05 14:08:21;;;;;;;;;;;8.00;99.90;;;;;;5071443;28;19964;-62
2022/12/05 14:11:08;;;;;;;;;;;8.00;99.90;;;;;;5050194;28;20031;-62
2022/12/05 14:13:42;;;;;;;;;;;7.90;99.90;;;;;;5075203;28;20205;-62
2022/12/05 14:16:27;;;;;;;;;;;7.90;99.90;;;;;;5076556;28;20327;-63
2022/12/05 14:18:58;;;;;;;;;;;7.90;99.90;;;;;;5077108;28;19994;-62
2022/12/05 14:21:35;;;;;;;;;;;7.80;99.90;;;;;;5074227;28;19921;-62
2022/12/05 14:24:06;;;;;;;;;;;7.80;99.90;;;;;;5075084;28;19951;-63
2022/12/05 14:26:39;;;;;;;;;;;7.80;99.90;;;;;;5074877;28;19959;-62
2022/12/05 14:29:24;;;;;;;;;;;7.90;99.90;;;;;;5076544;28;19925;-60
2022/12/05 14:31:59;;;;;;;;;;;8.00;99.90;;;;;;5076854;28;19950;-61
2022/12/05 14:34:29;;;;;;;;;;;7.80;99.90;;;;;;5084416;28;19956;-61
2022/12/05 14:36:57;;;;;;;;;;;7.90;99.90;;;;;;5084102;28;19920;-61
2022/12/05 14:39:30;;;;;;;;;;;7.70;99.90;;;;;;5083516;28;19928;-61
2022/12/05 14:41:57;;;;;;;;;;;7.60;99.90;;;;;;5082119;28;19951;-61
2022/12/05 14:44:29;;;;;;;;;;;7.60;99.90;;;;;;5083110;28;20020;-61
2022/12/05 14:46:57;;;;;;;;;;;7.50;99.90;;;;;;5085512;28;19938;-61
2022/12/05 14:49:51;;;;;;;;;;;7.40;99.90;;;;;;5083180;28;20018;-60
2022/12/05 14:52:20;;;;;;;;;;;7.50;99.90;;;;;;5086529;28;20287;-61
2022/12/05 14:54:47;;;;;;;;;;;7.50;99.90;;;;;;5085695;28;19920;-60